Latest Weather Observations for Cloncurry

IDQ60801

Issued at 11:32 am EST Tuesday 21 April 2015 (issued every 30 minutes, with the page automatically refreshed every 10 minutes)

About weather observations | Map of weather stations | Latest weather observations for QLD | Other Formats
Station Details ID: 029141 Name: CLONCURRY AIRPORT Lat: -20.67 Lon: 140.50 Height: 186.0 m
Data from the previous 72 hours. | See also: Recent months at Cloncurry
Date/Time
EST
Temp
°C
App
Temp
°C
Dew
Point
Rel
Hum
%
Delta-T
°C
Wind Press
QNH
hPa
Press
MSL
hPa
Rain
since 9 am
mm
Dir
 
Spd
km/h
Gust
km/h
Spd
kts
Gust
kts
21/11:30am 22.0 14.1 -1.3 21 10.3 SE 30 39 16 21 1020.7 1019.6 0.0
21/11:00am 21.2 13.0 -1.3 22 9.8 SE 32 43 17 23 1021.0 1019.9 0.0
21/10:30am 20.3 11.9 -2.1 22 9.6 SE 32 44 17 24 1021.5 1020.4 0.0
21/10:00am 19.6 11.1 -2.1 23 9.2 SE 33 44 18 24 1021.7 1020.6 0.0
21/09:30am 18.7 9.3 -2.8 23 9.0 SE 37 50 20 27 1021.6 1020.5 0.0
21/09:00am 18.4 9.7 -3.1 23 8.8 SE 33 46 18 25 1021.3 1020.2 0.0
21/08:30am 17.9 9.4 -2.9 24 8.6 SE 32 44 17 24 1021.2 1020.1 0.0
21/08:00am 17.2 8.7 -3.5 24 8.3 SSE 32 41 17 22 1021.1 1020.0 0.0
21/07:30am 16.6 9.9 -4.0 24 8.2 SSE 22 32 12 17 1020.9 1019.8 0.0
21/07:00am 15.1 8.9 -5.3 24 7.7 S 19 24 10 13 1020.6 1019.5 0.0
21/06:30am 15.8 9.9 -5.3 23 8.1 SSE 17 24 9 13 1020.5 1019.4 0.0
21/06:00am 16.7 10.5 -4.5 23 8.3 SSE 19 30 10 16 1020.3 1019.2 0.0
21/05:30am 17.1 10.4 -4.2 23 8.5 SSE 22 28 12 15 1020.2 1019.1 0.0
21/05:00am 17.3 10.3 -3.4 24 8.4 SE 24 32 13 17 1020.0 1018.9 0.0
21/04:30am 17.4 11.2 -2.8 25 8.3 SSE 20 28 11 15 1019.8 1018.7 0.0
21/04:00am 17.6 11.5 -2.1 26 8.2 SSE 20 26 11 14 1019.6 1018.5 0.0
21/03:30am 17.9 11.6 -1.3 27 8.2 SSE 22 32 12 17 1019.2 1018.1 0.0
21/03:00am 18.6 11.2 -0.7 27 8.4 S 28 39 15 21 1019.3 1018.2 0.0
21/02:30am 19.3 11.7 0.4 28 8.4 SSE 30 43 16 23 1019.5 1018.4 0.0
21/02:00am 19.6 13.2 1.1 29 8.4 SSE 24 41 13 22 1019.7 1018.6 0.0
21/01:00am 20.0 13.8 1.9 30 8.4 S 24 32 13 17 1020.0 1018.9 0.0
21/12:30am 20.4 13.8 2.3 30 8.5 S 26 35 14 19 1019.9 1018.8 0.0
21/12:00am 21.1 13.9 2.9 30 8.6 SSE 30 43 16 23 1019.8 1018.7 0.0
 
Date/Time
EST
Temp
°C
App
Temp
°C
Dew
Point
Rel
Hum
%
Delta-T
°C
Wind Press
QNH
hPa
Press
MSL
hPa
Rain
since 9 am
mm
Dir
 
Spd
km/h
Gust
km/h
Spd
kts
Gust
kts
20/11:30pm 21.5 15.8 2.7 29 8.9 SSE 22 28 12 15 1019.9 1018.8 0.0
20/11:00pm 21.8 16.1 3.0 29 9.0 S 22 32 12 17 1019.8 1018.7 0.0
20/10:30pm 22.4 16.3 3.0 28 9.3 SSE 24 33 13 18 1019.5 1018.4 0.0
20/10:00pm 22.6 16.6 3.2 28 9.4 SSE 24 32 13 17 1019.4 1018.3 0.0
20/09:30pm 23.0 17.5 4.0 29 9.4 S 22 32 12 17 1019.4 1018.3 0.0
20/09:00pm 23.2 18.4 4.7 30 9.2 S 19 26 10 14 1019.0 1018.0 0.0
20/08:30pm 23.6 18.9 5.0 30 9.4 S 19 22 10 12 1019.0 1018.0 0.0
20/08:00pm 24.6 19.1 5.9 30 9.6 SSE 24 37 13 20 1018.4 1017.4 0.0
20/07:30pm 24.8 19.7 6.1 30 9.7 SSE 22 30 12 16 1018.0 1017.0 0.0
20/07:00pm 25.2 19.8 6.4 30 9.8 SSE 24 35 13 19 1017.8 1016.7 0.0
20/06:30pm 25.7 20.4 6.8 30 10.0 SSE 24 32 13 17 1017.5 1016.4 0.0
20/06:00pm 26.3 20.3 6.9 29 10.3 SSE 28 35 15 19 1017.1 1016.0 0.0
20/05:30pm 27.1 21.2 7.5 29 10.6 SSE 28 37 15 20 1016.8 1015.7 0.0
20/05:00pm 27.5 21.8 8.4 30 10.5 SSE 28 41 15 22 1016.5 1015.4 0.0
20/04:30pm 27.9 22.4 9.2 31 10.4 SSE 28 39 15 21 1016.5 1015.4 0.0
20/04:00pm 27.7 22.1 10.0 33 10.0 SSE 30 43 16 23 1016.5 1015.4 0.0
20/03:30pm 27.4 22.1 9.7 33 9.9 SSE 28 41 15 22 1016.7 1015.6 0.0
20/03:00pm 27.6 22.6 10.8 35 9.6 SSE 28 37 15 20 1017.0 1015.9 0.0
20/02:30pm 27.3 22.8 11.3 37 9.2 SSE 26 39 14 21 1017.4 1016.3 0.0
20/02:00pm 27.1 22.3 11.6 38 8.9 SE 28 37 15 20 1017.9 1016.8 0.0
20/01:30pm 26.8 22.0 11.7 39 8.7 SE 28 43 15 23 1018.4 1017.4 0.0
20/01:00pm 26.0 20.4 11.4 40 8.3 SE 32 44 17 24 1018.8 1017.8 0.0
20/12:30pm 24.8 19.9 11.4 43 7.6 SE 28 39 15 21 1019.7 1018.6 0.0
20/12:00pm 24.8 19.8 12.1 45 7.3 SE 30 41 16 22 1020.4 1019.3 0.0
20/11:30am 23.1 17.4 11.2 47 6.7 SSE 32 41 17 22 1020.9 1019.8 0.0
20/11:00am 23.2 18.0 11.6 48 6.6 SE 30 39 16 21 1021.1 1020.0 0.0
20/10:30am 21.8 15.9 10.6 49 6.2 SSE 32 41 17 22 1021.7 1020.6 0.0
20/10:00am 21.3 15.1 10.2 49 6.1 SSE 33 43 18 23 1021.6 1020.5 0.0
20/09:30am 21.0 14.9 9.9 49 6.0 SSE 32 39 17 21 1021.5 1020.4 0.0
20/09:00am 20.7 14.9 9.6 49 6.0 SSE 30 39 16 21 1021.3 1020.2 0.0
20/08:30am 20.8 14.6 9.4 48 6.1 SSE 32 43 17 23 1021.2 1020.1 0.0
20/08:00am 20.6 15.0 8.9 47 6.2 SSE 28 37 15 20 1020.8 1019.7 0.0
20/07:30am 20.4 14.4 8.7 47 6.2 S 30 43 16 23 1021.0 1019.9 0.0
20/07:00am 20.3 14.5 8.0 45 6.4 SSE 28 33 15 18 1020.5 1019.4 0.0
20/06:30am 20.7 14.5 8.0 44 6.7 S 30 39 16 21 1019.9 1018.8 0.0
20/06:00am 20.9 14.6 7.5 42 6.9 S 30 39 16 21 1019.7 1018.6 0.0
20/05:30am 21.1 15.2 7.3 41 7.2 SSE 28 39 15 21 1019.6 1018.5 0.0
20/05:00am 21.3 14.9 6.8 39 7.4 SSE 30 48 16 26 1019.5 1018.4 0.0
20/04:30am 21.5 14.2 7.0 39 7.5 SSE 35 46 19 25 1019.3 1018.2 0.0
20/04:00am 22.0 16.2 7.8 40 7.4 SSE 28 35 15 19 1019.2 1018.1 0.0
20/03:30am 22.1 16.7 7.9 40 7.5 SSE 26 33 14 18 1019.2 1018.1 0.0
20/03:00am 22.2 16.7 7.6 39 7.6 SSE 26 39 14 21 1019.2 1018.1 0.0
20/02:30am 22.2 16.9 6.8 37 8.0 S 24 37 13 20 1019.2 1018.1 0.0
20/02:00am 22.3 16.4 7.3 38 7.8 S 28 35 15 19 1019.0 1018.0 0.0
20/01:30am 22.4 16.4 8.5 41 7.4 S 30 43 16 23 1019.3 1018.2 0.0
20/01:00am 22.5 17.2 10.0 45 6.8 S 28 39 15 21 1019.4 1018.3 0.0
20/12:30am 22.6 17.0 11.4 49 6.3 S 32 46 17 25 1019.7 1018.6 0.0
20/12:00am 22.6 17.1 12.5 53 5.8 S 33 46 18 25 1019.5 1018.4 0.0
 
Date/Time
EST
Temp
°C
App
Temp
°C
Dew
Point
Rel
Hum
%
Delta-T
°C
Wind Press
QNH
hPa
Press
MSL
hPa
Rain
since 9 am
mm
Dir
 
Spd
km/h
Gust
km/h
Spd
kts
Gust
kts
19/11:30pm 22.6 17.5 13.7 57 5.2 S 33 46 18 25 1019.5 1018.4 0.0
19/11:04pm 22.6 18.5 13.9 58 5.1 S 28 50 15 27 1019.6 1018.5 0.0
19/11:00pm 22.6 18.1 13.9 58 5.1 S 30 43 16 23 1019.5 1018.4 0.0
19/10:30pm 22.6 17.2 13.9 58 5.1 S 35 48 19 26 1020.0 1018.9 0.0
19/10:00pm 22.8 18.0 14.1 58 5.1 S 32 44 17 24 1020.1 1019.0 0.0
19/09:30pm 23.0 19.0 14.0 57 5.3 SSW 28 37 15 20 1019.9 1018.8 0.0
19/09:00pm 23.1 19.5 14.1 57 5.3 S 26 35 14 19 1019.5 1018.4 0.0
19/08:30pm 23.2 20.0 14.2 57 5.3 S 24 32 13 17 1019.2 1018.1 0.0
19/08:00pm 23.1 19.5 14.1 57 5.3 S 26 35 14 19 1018.7 1017.7 0.0
19/07:30pm 23.1 19.0 13.8 55 5.5 S 28 39 15 21 1018.5 1017.5 0.0
19/07:00pm 23.2 18.3 13.7 55 5.6 S 32 41 17 22 1018.3 1017.3 0.0
19/06:30pm 23.8 19.6 13.4 52 6.1 S 28 41 15 22 1018.2 1017.2 0.0
19/06:00pm 24.3 18.8 12.6 48 6.8 SSW 33 44 18 24 1017.9 1016.8 0.0
19/05:30pm 25.1 18.7 12.0 44 7.5 S 37 46 20 25 1017.6 1016.5 0.0
19/05:00pm 26.2 19.3 11.5 40 8.4 S 39 48 21 26 1017.2 1016.1 0.0
19/04:30pm 27.3 21.2 11.7 37 9.0 SSW 35 44 19 24 1016.9 1015.8 0.0
19/04:00pm 29.0 22.3 12.4 36 9.8 S 39 48 21 26 1016.8 1015.7 0.0
19/03:30pm 30.1 26.3 12.5 34 10.4 S 24 33 13 18 1016.4 1015.3 0.0
19/03:00pm 29.1 24.9 11.2 33 10.3 SSE 24 33 13 18 1016.6 1015.5 0.0
19/02:30pm 29.6 25.2 11.6 33 10.5 S 26 37 14 20 1016.7 1015.6 0.0
19/02:00pm 30.4 26.3 12.8 34 10.5 SSE 26 39 14 21 1016.8 1015.7 0.0
19/01:30pm 30.3 27.0 14.0 37 9.9 SE 24 39 13 21 1016.9 1015.8 0.0
19/01:00pm 28.8 25.5 13.9 40 9.0 SE 24 35 13 19 1017.5 1016.4 0.0
19/12:30pm 28.7 24.7 14.1 40 8.8 SE 28 39 15 21 1018.0 1017.0 0.0
19/12:00pm 28.7 25.0 14.9 43 8.4 SSE 28 39 15 21 1018.4 1017.4 0.0
19/11:30am 27.8 23.7 14.8 45 7.9 SSE 30 43 16 23 1018.9 1017.9 0.0
19/11:00am 27.8 25.4 16.4 50 7.1 SE 24 35 13 19 1019.4 1018.3 0.0
19/10:30am 26.5 23.6 16.1 52 6.4 SSE 26 35 14 19 1019.6 1018.5 0.0
19/10:00am 25.8 23.0 17.2 59 5.4 SSE 28 43 15 23 1019.6 1018.5 0.0
19/09:30am 24.0 22.1 16.8 64 4.5 S 22 32 12 17 1019.7 1018.6 0.0
19/09:00am 23.5 21.1 16.5 65 4.3 S 24 32 13 17 1019.5 1018.4 0.0
19/08:30am 23.0 20.2 16.3 66 4.1 S 26 32 14 17 1019.4 1018.3 0.0
19/08:00am 23.2 20.5 16.7 67 4.0 S 26 35 14 19 1019.0 1018.0 0.0
19/07:30am 22.6 21.2 16.6 69 3.7 S 19 32 10 17 1018.6 1017.6 0.0
19/07:00am 22.3 20.2 16.3 69 3.7 S 22 30 12 16 1018.3 1017.3 0.0
19/06:30am 22.4 20.3 16.2 68 3.8 S 22 28 12 15 1017.5 1016.4 0.0
19/06:00am 22.7 19.5 16.3 67 3.9 S 28 35 15 19 1016.9 1015.8 0.0
19/05:30am 23.1 20.0 16.6 67 4.0 S 28 41 15 22 1016.6 1015.5 0.0
19/05:00am 23.3 19.5 16.6 66 4.1 S 32 43 17 23 1016.4 1015.3 0.0
19/04:30am 23.7 20.3 16.7 65 4.3 S 30 39 16 21 1016.2 1015.1 0.0
19/04:00am 24.0 21.5 17.0 65 4.3 S 26 35 14 19 1015.9 1014.8 0.0
19/03:30am 23.9 21.3 16.9 65 4.3 SSE 26 35 14 19 1016.0 1014.9 0.0
19/03:00am 23.7 21.4 16.7 65 4.3 S 24 33 13 18 1016.2 1015.1 0.0
19/02:30am 23.9 19.5 16.7 64 4.5 S 35 46 19 25 1016.0 1014.9 0.0
19/02:00am 24.1 20.4 16.9 64 4.5 S 32 41 17 22 1016.2 1015.1 0.0
19/01:30am 24.1 20.9 16.4 62 4.7 SSW 28 37 15 20 1016.3 1015.2 0.0
19/01:00am 24.2 19.9 15.9 59 5.1 SSW 33 43 18 23 1016.6 1015.5 0.0
19/12:30am 24.3 20.0 15.5 58 5.3 SSW 32 41 17 22 1016.6 1015.5 0.0
19/12:00am 24.7 20.0 14.8 54 6.0 S 33 43 18 23 1016.8 1015.7 0.0
 
Date/Time
EST
Temp
°C
App
Temp
°C
Dew
Point
Rel
Hum
%
Delta-T
°C
Wind Press
QNH
hPa
Press
MSL
hPa
Rain
since 9 am
mm
Dir
 
Spd
km/h
Gust
km/h
Spd
kts
Gust
kts
18/11:30pm 25.1 20.8 14.3 51 6.5 SSW 30 41 16 22 1016.9 1015.8 0.0
18/11:00pm 25.9 22.0 13.4 46 7.4 SSW 26 35 14 19 1016.9 1015.8 0.0
18/10:30pm 26.7 21.6 13.1 43 8.0 S 32 44 17 24 1016.8 1015.7 0.0
18/10:00pm 27.2 22.2 13.5 42 8.1 S 32 41 17 22 1016.6 1015.5 0.0
18/09:30pm 27.5 23.0 13.8 43 8.2 S 30 41 16 22 1016.5 1015.4 0.0
18/09:00pm 27.8 22.8 13.3 40 8.6 SSW 32 44 17 24 1016.2 1015.1 0.0
18/08:30pm 28.5 22.1 12.0 36 9.6 SSW 37 52 20 28 1015.7 1014.6 0.0
18/08:00pm 30.7 24.2 11.6 31 11.2 S 37 46 20 25 1014.8 1013.7 0.0
18/07:43pm 31.4 27.4 11.7 29 11.6 SSW 24 52 13 28 1014.3 1013.2 0.0
18/07:30pm 31.7 28.9 11.5 29 11.9 SSW 17 24 9 13 1014.1 1013.0 0.0
18/07:00pm 32.1 29.3 11.3 28 12.2 SSW 17 22 9 12 1013.7 1012.6 0.0
18/06:30pm 32.8 29.6 11.3 27 12.7 SSW 19 28 10 15 1013.2 1012.2 0.0
18/06:00pm 33.4 30.8 11.9 27 12.8 SSW 17 22 9 12 1012.8 1011.7 0.0
18/05:30pm 33.7 31.3 11.5 26 13.2 SSW 15 22 8 12 1012.7 1011.6 0.0
18/05:00pm 34.1 30.9 11.9 26 13.3 SW 20 32 11 17 1012.5 1011.4 0.0
18/04:30pm 34.4 31.3 12.1 26 13.4 SW 20 28 11 15 1012.4 1011.3 0.0
18/04:00pm 34.3 32.3 12.6 27 13.1 SW 15 24 8 13 1012.4 1011.3 0.0
18/03:30pm 34.9 32.6 13.1 27 13.3 S 17 26 9 14 1012.6 1011.5 0.0
18/03:00pm 34.1 32.2 13.0 28 12.8 SSW 15 26 8 14 1012.7 1011.6 0.0
18/02:30pm 34.2 31.6 13.1 28 12.8 S 19 28 10 15 1013.0 1011.9 0.0
18/02:00pm 33.1 30.7 12.7 29 12.3 SSW 17 26 9 14 1013.3 1012.3 0.0
18/01:30pm 32.8 29.9 12.4 29 12.2 SSW 19 30 10 16 1013.8 1012.7 0.0
18/01:00pm 32.7 31.1 12.9 30 11.9 SSW 13 22 7 12 1014.3 1013.2 0.0
18/12:30pm 33.0 30.5 13.6 31 11.8 S 19 26 10 14 1014.8 1013.7 0.0
18/12:00pm 31.7 30.6 13.0 32 11.2 S 11 19 6 10 1015.3 1014.2 0.0

Other Formats:

Comma delimited format used in spreadsheet applications
http://www.bom.gov.au/fwo/IDQ60801/IDQ60801.94335.axf

JavaScript Object Notation format (JSON) in row-major order
http://www.bom.gov.au/fwo/IDQ60801/IDQ60801.94335.json